createdAt,value
2016-09-14T00:00:07.549Z,0
2016-09-14T00:01:07.828Z,0
2016-09-14T00:02:07.792Z,0
2016-09-14T00:03:07.770Z,0
2016-09-14T00:04:08.029Z,0
2016-09-14T00:05:07.696Z,0
2016-09-14T00:06:07.970Z,0
2016-09-14T00:07:07.343Z,0
2016-09-14T00:08:07.609Z,0
2016-09-14T00:09:07.578Z,0
2016-09-14T00:10:07.558Z,0
2016-09-14T00:11:07.213Z,0
2016-09-14T00:12:07.483Z,0
2016-09-14T00:13:07.448Z,0
2016-09-14T00:14:07.719Z,0
2016-09-14T00:15:07.397Z,0
2016-09-14T00:16:07.365Z,0
2016-09-14T00:17:07.632Z,0
2016-09-14T00:18:07.601Z,0
2016-09-14T00:19:07.281Z,0
2016-09-14T00:20:06.930Z,0
2016-09-14T00:21:07.199Z,0
2016-09-14T00:22:07.176Z,0
2016-09-14T00:23:06.848Z,0
2016-09-14T00:24:07.115Z,0
2016-09-14T00:25:06.771Z,0
2016-09-14T00:26:07.345Z,0
2016-09-14T00:27:07.011Z,0
2016-09-14T00:28:07.293Z,0
2016-09-14T00:29:06.949Z,0
2016-09-14T00:30:06.919Z,0
2016-09-14T00:31:06.287Z,0
2016-09-14T00:32:06.863Z,0
2016-09-14T00:33:06.828Z,0
2016-09-14T00:34:06.491Z,0
2016-09-14T00:35:06.462Z,0
2016-09-14T00:36:06.744Z,0
2016-09-14T00:37:06.709Z,0
2016-09-14T00:38:06.672Z,0
2016-09-14T00:39:06.938Z,0
2016-09-14T00:40:06.606Z,0
2016-09-14T00:41:06.572Z,0
2016-09-14T00:42:06.842Z,0
2016-09-14T00:43:06.813Z,0
2016-09-14T00:44:06.173Z,0
2016-09-14T00:45:06.766Z,0
2016-09-14T00:46:06.718Z,0
2016-09-14T00:47:06.087Z,0
2016-09-14T00:48:06.061Z,0
2016-09-14T00:49:06.321Z,0
2016-09-14T00:50:06.592Z,0
2016-09-14T00:51:05.956Z,0
2016-09-14T00:52:06.225Z,0
2016-09-14T00:53:06.497Z,0
2016-09-14T00:54:06.154Z,0
2016-09-14T00:55:06.131Z,0
2016-09-14T00:56:06.100Z,0
2016-09-14T00:57:05.783Z,0
2016-09-14T00:58:06.332Z,0
2016-09-14T00:59:06.010Z,0
2016-09-14T01:00:06.280Z,0
2016-09-14T01:01:05.640Z,0
2016-09-14T01:02:06.205Z,0
2016-09-14T01:03:05.875Z,0
2016-09-14T01:04:05.841Z,0
2016-09-14T01:05:06.113Z,0
2016-09-14T01:06:05.477Z,0
2016-09-14T01:07:05.751Z,0
2016-09-14T01:08:06.009Z,0
2016-09-14T01:09:05.990Z,0
2016-09-14T01:10:05.651Z,0
2016-09-14T01:11:05.930Z,0
2016-09-14T01:12:05.284Z,0
2016-09-14T01:13:05.559Z,0
2016-09-14T01:14:05.222Z,0
2016-09-14T01:15:05.497Z,0
2016-09-14T01:16:05.154Z,0
2016-09-14T01:17:05.141Z,0
2016-09-14T01:18:05.102Z,0
2016-09-14T01:19:05.676Z,0
2016-09-14T01:20:05.632Z,0
2016-09-14T01:21:05.609Z,0
2016-09-14T01:22:05.568Z,0
2016-09-14T01:23:05.244Z,0
2016-09-14T01:24:05.504Z,0
2016-09-14T01:25:05.179Z,0
2016-09-14T01:26:05.445Z,0
2016-09-14T01:27:05.118Z,0
2016-09-14T01:28:04.776Z,0
2016-09-14T01:29:04.748Z,0
2016-09-14T01:30:05.316Z,0
2016-09-14T01:31:04.992Z,0
2016-09-14T01:32:04.646Z,0
2016-09-14T01:33:04.618Z,0
2016-09-14T01:34:04.580Z,0
2016-09-14T01:35:05.159Z,0
2016-09-14T01:36:05.131Z,0
2016-09-14T01:37:04.792Z,0
2016-09-14T01:38:05.058Z,0
2016-09-14T01:39:04.732Z,0
2016-09-14T01:40:04.996Z,0
2016-09-14T01:41:04.971Z,0
2016-09-14T01:42:04.927Z,0
2016-09-14T01:43:04.914Z,0
2016-09-14T01:44:04.868Z,0
2016-09-14T01:45:04.537Z,0
2016-09-14T01:46:04.803Z,0
2016-09-14T01:47:04.181Z,0
2016-09-14T01:48:04.436Z,0
2016-09-14T01:49:04.113Z,0
2016-09-14T01:50:04.074Z,0
2016-09-14T01:51:04.651Z,0
2016-09-14T01:52:04.616Z,0
2016-09-14T01:53:03.990Z,0
2016-09-14T01:54:04.251Z,0
2016-09-14T01:55:04.217Z,0
2016-09-14T01:56:04.189Z,0
2016-09-14T01:57:04.152Z,0
2016-09-14T01:58:04.124Z,0
2016-09-14T01:59:04.091Z,0
2016-09-14T02:00:04.075Z,0
2016-09-14T02:01:04.021Z,0
2016-09-14T02:02:04.299Z,0
2016-09-14T02:03:04.261Z,0
2016-09-14T02:04:03.629Z,0
2016-09-14T02:05:03.892Z,0
2016-09-14T02:06:03.561Z,0
2016-09-14T02:07:04.130Z,0
2016-09-14T02:08:04.108Z,0
2016-09-14T02:09:03.470Z,0
2016-09-14T02:10:03.442Z,0
2016-09-14T02:11:03.699Z,0
2016-09-14T02:12:03.976Z,0
2016-09-14T02:13:03.652Z,0
2016-09-14T02:14:03.912Z,0
2016-09-14T02:15:03.277Z,0
2016-09-14T02:16:03.536Z,0
2016-09-14T02:17:03.817Z,0
2016-09-14T02:18:03.774Z,0
2016-09-14T02:19:03.746Z,0
2016-09-14T02:20:03.422Z,0
2016-09-14T02:21:03.379Z,0
2016-09-14T02:22:03.342Z,0
2016-09-14T02:23:03.311Z,0
2016-09-14T02:24:02.980Z,0
2016-09-14T02:25:03.250Z,0
2016-09-14T02:26:03.219Z,0
2016-09-14T02:27:03.496Z,0
2016-09-14T02:28:03.446Z,0
2016-09-14T02:29:03.425Z,0
2016-09-14T02:31:03.080Z,0
2016-09-14T02:32:03.324Z,0
2016-09-14T02:33:02.990Z,0
2016-09-14T02:34:02.956Z,0
2016-09-14T02:35:02.925Z,0
2016-09-14T02:36:03.190Z,0
2016-09-14T02:37:02.860Z,0
2016-09-14T02:38:02.222Z,0
2016-09-14T02:39:02.794Z,0
2016-09-14T02:40:02.774Z,0
2016-09-14T02:41:02.427Z,0
2016-09-14T02:42:02.699Z,0
2016-09-14T02:43:02.667Z,0
2016-09-14T02:44:02.637Z,0
2016-09-14T02:45:02.920Z,0
2016-09-14T02:46:02.866Z,0
2016-09-14T02:47:01.931Z,0
2016-09-14T02:48:02.801Z,0
2016-09-14T02:49:02.165Z,0
2016-09-14T02:50:02.129Z,0
2016-09-14T02:51:02.707Z,0
2016-09-14T02:52:02.369Z,0
2016-09-14T02:53:02.035Z,0
2016-09-14T02:54:02.604Z,0
2016-09-14T02:55:01.975Z,0
2016-09-14T02:56:02.538Z,0
2016-09-14T02:57:02.208Z,0
2016-09-14T02:58:02.177Z,0
2016-09-14T02:59:02.142Z,0
2016-09-14T03:00:02.414Z,0
2016-09-14T03:01:02.084Z,0
2016-09-14T03:02:02.037Z,0
2016-09-14T03:03:02.014Z,0
2016-09-14T03:04:02.272Z,0
2016-09-14T03:05:02.254Z,0
2016-09-14T03:06:02.215Z,0
2016-09-14T03:07:02.188Z,0
2016-09-14T03:08:02.156Z,0
2016-09-14T03:09:01.226Z,0
2016-09-14T03:10:02.088Z,0
2016-09-14T03:11:01.756Z,0
2016-09-14T03:12:01.729Z,0
2016-09-14T03:13:01.686Z,0
2016-09-14T03:14:01.656Z,0
2016-09-14T03:15:01.623Z,0
2016-09-14T03:16:00.985Z,0
2016-09-14T03:17:01.852Z,0
2016-09-14T03:18:01.841Z,0
2016-09-14T03:19:01.498Z,0
2016-09-14T03:20:01.466Z,0
2016-09-14T03:21:00.817Z,0
2016-09-14T03:22:01.105Z,0
2016-09-14T03:23:01.051Z,0
2016-09-14T03:24:01.327Z,0
2016-09-14T03:25:01.286Z,0
2016-09-14T03:26:01.268Z,0
2016-09-14T03:27:01.534Z,0
2016-09-14T03:28:00.598Z,0
2016-09-14T03:29:00.862Z,0
2016-09-14T03:30:01.131Z,0
2016-09-14T03:31:01.097Z,0
2016-09-14T03:32:01.368Z,0
2016-09-14T03:33:01.032Z,0
2016-09-14T03:34:01.294Z,0
2016-09-14T03:35:01.265Z,0
2016-09-14T03:36:00.628Z,0
2016-09-14T03:37:00.598Z,0
2016-09-14T03:38:00.870Z,0
2016-09-14T03:39:00.832Z,0
2016-09-14T03:40:01.102Z,0
2016-09-14T03:41:00.766Z,0
2016-09-14T03:42:00.434Z,0
2016-09-14T03:43:01.006Z,0
2016-09-14T03:44:00.677Z,0
2016-09-14T03:45:00.337Z,0
2016-09-14T03:46:00.304Z,0
2016-09-14T03:47:00.569Z,0
2016-09-14T03:48:00.545Z,0
2016-09-14T03:49:00.804Z,0
2016-09-14T03:50:00.474Z,0
2016-09-14T03:51:00.738Z,0
2016-09-14T03:52:00.409Z,0
2016-09-14T03:53:00.380Z,0
2016-09-14T03:54:00.037Z,0
2016-09-14T03:55:00.003Z,0
2016-09-14T03:56:00.577Z,0
2016-09-14T03:56:59.638Z,0
2016-09-14T03:57:59.901Z,0
2016-09-14T03:59:00.475Z,0
2016-09-14T04:00:00.149Z,0
2016-09-14T04:01:00.104Z,0
2016-09-14T04:01:59.473Z,0
2016-09-14T04:03:00.048Z,0
2016-09-14T04:03:59.711Z,0
2016-09-14T04:05:00.294Z,0
2016-09-14T04:06:00.264Z,0
2016-09-14T04:06:59.611Z,0
2016-09-14T04:08:00.187Z,0
2016-09-14T04:09:00.149Z,0
2016-09-14T04:10:00.128Z,0
2016-09-14T04:10:59.483Z,0
2016-09-14T04:11:59.747Z,0
2016-09-14T04:12:59.717Z,0
2016-09-14T04:13:59.382Z,0
2016-09-14T04:14:59.650Z,0
2016-09-14T04:15:59.919Z,0
2016-09-14T04:16:59.584Z,0
2016-09-14T04:17:59.554Z,0
2016-09-14T04:18:59.518Z,0
2016-09-14T04:19:59.181Z,0
2016-09-14T04:20:59.765Z,0
2016-09-14T04:21:59.716Z,0
2016-09-14T04:22:59.381Z,0
2016-09-14T04:23:59.051Z,0
2016-09-14T04:24:59.622Z,0
2016-09-14T04:25:59.590Z,0
2016-09-14T04:26:58.653Z,0
2016-09-14T04:27:59.217Z,0
2016-09-14T04:28:59.498Z,0
2016-09-14T04:29:58.846Z,0
2016-09-14T04:30:59.423Z,0
2016-09-14T04:31:58.187Z,0
2016-09-14T04:32:58.453Z,0
2016-09-14T04:33:58.720Z,0
2016-09-14T04:34:59.300Z,0
2016-09-14T04:35:58.955Z,0
2016-09-14T04:36:58.924Z,0
2016-09-14T04:37:58.585Z,0
2016-09-14T04:38:58.858Z,0
2016-09-14T04:39:58.512Z,0
2016-09-14T04:40:59.099Z,0
2016-09-14T04:41:58.759Z,0
2016-09-14T04:42:58.725Z,0
2016-09-14T04:43:58.386Z,0
2016-09-14T04:44:58.651Z,0
2016-09-14T04:45:58.623Z,0
2016-09-14T04:46:58.884Z,0
2016-09-14T04:47:58.562Z,0
2016-09-14T04:48:58.816Z,0
2016-09-14T04:49:57.888Z,0
2016-09-14T04:50:58.759Z,0
2016-09-14T04:51:58.726Z,5
2016-09-14T04:52:58.392Z,5
2016-09-14T04:53:58.352Z,5
2016-09-14T04:54:58.619Z,5
2016-09-14T04:55:58.290Z,5
2016-09-14T04:56:58.263Z,5
2016-09-14T04:57:57.919Z,10
2016-09-14T04:58:58.192Z,10
2016-09-14T04:59:58.462Z,10
2016-09-14T05:00:58.432Z,10
2016-09-14T05:01:57.782Z,15
2016-09-14T05:02:57.762Z,15
2016-09-14T05:03:58.025Z,15
2016-09-14T05:04:58.290Z,15
2016-09-14T05:05:58.260Z,20
2016-09-14T05:06:58.239Z,20
2016-09-14T05:07:57.594Z,20
2016-09-14T05:08:57.557Z,25
2016-09-14T05:09:57.529Z,25
2016-09-14T05:10:58.091Z,30
2016-09-14T05:11:57.760Z,30
2016-09-14T05:12:58.025Z,35
2016-09-14T05:13:57.693Z,35
2016-09-14T05:14:57.358Z,35
2016-09-14T05:15:57.939Z,35
2016-09-14T05:16:57.896Z,35
2016-09-14T05:17:57.564Z,40
2016-09-14T05:18:57.520Z,40
2016-09-14T05:19:57.501Z,45
2016-09-14T05:20:57.759Z,50
2016-09-14T05:21:57.425Z,55
2016-09-14T05:22:57.693Z,60
2016-09-14T05:23:57.378Z,60
2016-09-14T05:24:57.631Z,60
2016-09-14T05:25:57.305Z,70
2016-09-14T05:26:57.263Z,90
2016-09-14T05:27:57.529Z,105
2016-09-14T05:28:57.190Z,115
2016-09-14T05:29:56.860Z,120
2016-09-14T05:30:56.827Z,125
2016-09-14T05:31:56.796Z,135
2016-09-14T05:32:57.066Z,145
2016-09-14T05:33:56.737Z,150
2016-09-14T05:34:57.005Z,165
2016-09-14T05:35:56.379Z,170
2016-09-14T05:36:57.235Z,175
2016-09-14T05:37:57.209Z,180
2016-09-14T05:38:57.178Z,185
2016-09-14T05:39:56.840Z,175
2016-09-14T05:40:57.107Z,175
2016-09-14T05:41:56.778Z,180
2016-09-14T05:42:56.443Z,190
2016-09-14T05:43:57.008Z,205
2016-09-14T05:44:56.685Z,235
2016-09-14T05:45:56.950Z,255
2016-09-14T05:46:56.615Z,270
2016-09-14T05:47:56.893Z,280
2016-09-14T05:48:56.854Z,295
2016-09-14T05:49:56.216Z,305
2016-09-14T05:50:56.494Z,320
2016-09-14T05:51:56.460Z,330
2016-09-14T05:52:55.829Z,330
2016-09-14T05:53:56.417Z,325
2016-09-14T05:54:56.064Z,335
2016-09-14T05:55:56.645Z,355
2016-09-14T05:56:56.304Z,380
2016-09-14T05:57:56.288Z,385
2016-09-14T05:58:56.247Z,395
2016-09-14T05:59:55.919Z,410
2016-09-14T06:00:56.194Z,415
2016-09-14T06:01:56.467Z,425
2016-09-14T06:02:56.123Z,445
2016-09-14T06:03:56.094Z,450
2016-09-14T06:04:56.071Z,460
2016-09-14T06:05:56.338Z,475
2016-09-14T06:06:55.705Z,480
2016-09-14T06:07:56.284Z,485
2016-09-14T06:08:55.964Z,495
2016-09-14T06:09:56.226Z,510
2016-09-14T06:10:55.599Z,520
2016-09-14T06:11:56.176Z,515
2016-09-14T06:12:55.842Z,530
2016-09-14T06:13:55.817Z,550
2016-09-14T06:14:56.095Z,550
2016-09-14T06:15:55.460Z,560
2016-09-14T06:16:55.731Z,560
2016-09-14T06:17:55.709Z,550
2016-09-14T06:18:55.987Z,540
2016-09-14T06:19:55.969Z,560
2016-09-14T06:20:55.937Z,595
2016-09-14T06:21:55.607Z,610
2016-09-14T06:22:54.671Z,625
2016-09-14T06:23:55.551Z,640
2016-09-14T06:24:55.523Z,660
2016-09-14T06:25:55.502Z,665
2016-09-14T06:26:55.488Z,675
2016-09-14T06:27:55.763Z,680
2016-09-14T06:28:55.824Z,685
2016-09-14T06:29:55.088Z,690
2016-09-14T06:30:55.075Z,680
2016-09-14T06:31:55.354Z,670
2016-09-14T06:32:55.627Z,700
2016-09-14T06:33:55.604Z,735
2016-09-14T06:34:54.973Z,750
2016-09-14T06:35:55.247Z,760
2016-09-14T06:36:55.523Z,765
2016-09-14T06:37:55.200Z,780
2016-09-14T06:38:55.169Z,790
2016-09-14T06:39:55.150Z,800
2016-09-14T06:40:54.816Z,805
2016-09-14T06:41:54.493Z,815
2016-09-14T06:42:55.069Z,820
2016-09-14T06:43:54.749Z,825
2016-09-14T06:44:55.018Z,840
2016-09-14T06:45:55.009Z,835
2016-09-14T06:46:54.375Z,840
2016-09-14T06:47:54.959Z,835
2016-09-14T06:48:55.226Z,845
2016-09-14T06:49:55.207Z,830
2016-09-14T06:50:54.885Z,815
2016-09-14T06:51:54.866Z,795
2016-09-14T06:52:54.539Z,785
2016-09-14T06:53:55.115Z,785
2016-09-14T06:54:55.088Z,790
2016-09-14T06:55:55.067Z,795
2016-09-14T06:56:54.451Z,800
2016-09-14T06:57:54.720Z,810
2016-09-14T06:58:54.716Z,820
2016-09-14T06:59:54.386Z,820
2016-09-14T07:00:54.960Z,830
2016-09-14T07:01:54.645Z,835
2016-09-14T07:02:54.313Z,840
2016-09-14T07:03:54.592Z,845
2016-09-14T07:04:54.267Z,855
2016-09-14T07:05:54.545Z,865
2016-09-14T07:06:54.217Z,865
2016-09-14T07:07:54.498Z,875
2016-09-14T07:08:54.478Z,885
2016-09-14T07:09:54.463Z,925
2016-09-14T07:10:54.430Z,945
2016-09-14T07:11:53.506Z,970
2016-09-14T07:12:53.787Z,985
2016-09-14T07:13:54.678Z,1000
2016-09-14T07:14:54.347Z,1025
2016-09-14T07:15:54.334Z,1060
2016-09-14T07:16:54.011Z,1085
2016-09-14T07:17:54.291Z,1125
2016-09-14T07:18:54.572Z,1170
2016-09-14T07:19:54.558Z,1210
2016-09-14T07:20:54.226Z,1235
2016-09-14T07:21:53.906Z,1240
2016-09-14T07:22:53.578Z,1255
2016-09-14T07:23:54.173Z,1275
2016-09-14T07:24:54.135Z,1290
2016-09-14T07:25:54.124Z,1310
2016-09-14T07:26:54.102Z,1315
2016-09-14T07:27:54.087Z,1320
2016-09-14T07:28:53.771Z,1320
2016-09-14T07:29:53.747Z,1340
2016-09-14T07:30:54.327Z,1355
2016-09-14T07:31:54.312Z,1370
2016-09-14T07:32:53.690Z,1370
2016-09-14T07:33:53.360Z,1365
2016-09-14T07:34:53.952Z,1375
2016-09-14T07:35:53.939Z,1375
2016-09-14T07:36:53.606Z,1385
2016-09-14T07:37:53.879Z,1395
2016-09-14T07:38:54.169Z,1410
2016-09-14T07:39:54.151Z,1445
2016-09-14T07:40:53.830Z,1455
2016-09-14T07:41:53.807Z,1450
2016-09-14T07:42:53.793Z,1445
2016-09-14T07:43:53.766Z,1470
2016-09-14T07:44:53.763Z,1475
2016-09-14T07:45:53.426Z,1480
2016-09-14T07:46:53.718Z,1485
2016-09-14T07:47:53.699Z,1490
2016-09-14T07:48:53.972Z,1515
2016-09-14T07:49:53.964Z,1535
2016-09-14T07:50:53.942Z,1555
2016-09-14T07:51:53.933Z,1550
2016-09-14T07:52:53.295Z,1535
2016-09-14T07:53:53.584Z,1560
2016-09-14T07:54:53.558Z,1560
2016-09-14T07:55:53.244Z,1565
2016-09-14T07:56:53.226Z,1575
2016-09-14T07:57:53.827Z,1600
2016-09-14T07:58:53.786Z,1625
2016-09-14T07:59:53.473Z,1630
2016-09-14T08:00:53.152Z,1645
2016-09-14T08:01:52.843Z,1660
2016-09-14T08:02:53.414Z,1635
2016-09-14T08:03:53.113Z,1665
2016-09-14T08:04:53.380Z,1700
2016-09-14T08:05:53.356Z,1705
2016-09-14T08:06:53.346Z,1690
2016-09-14T08:07:53.324Z,1685
2016-09-14T08:08:53.611Z,1700
2016-09-14T08:09:53.590Z,1705
2016-09-14T08:10:53.283Z,1725
2016-09-14T08:11:52.959Z,1775
2016-09-14T08:12:53.231Z,1725
2016-09-14T08:13:53.520Z,1740
2016-09-14T08:14:53.197Z,1755
2016-09-14T08:15:53.486Z,1770
2016-09-14T08:16:53.165Z,1785
2016-09-14T08:17:52.544Z,1810
2016-09-14T08:18:53.147Z,1800
2016-09-14T08:19:52.809Z,1780
2016-09-14T08:20:53.097Z,1775
2016-09-14T08:21:53.380Z,1830
2016-09-14T08:22:53.067Z,1850
2016-09-14T08:23:52.746Z,1800
2016-09-14T08:24:52.725Z,1795
2016-09-14T08:25:53.313Z,1825
2016-09-14T08:26:52.998Z,1840
2016-09-14T08:27:52.978Z,1840
2016-09-14T08:28:52.977Z,1865
2016-09-14T08:29:52.948Z,1860
2016-09-14T08:30:52.935Z,1865
2016-09-14T08:31:52.913Z,1870
2016-09-14T08:32:52.897Z,1895
2016-09-14T08:33:52.891Z,1845
2016-09-14T08:34:52.556Z,1820
2016-09-14T08:35:52.844Z,1830
2016-09-14T08:36:53.143Z,1830
2016-09-14T08:37:53.048Z,1825
2016-09-14T08:38:52.495Z,1890
2016-09-14T08:39:52.780Z,1910
2016-09-14T08:40:52.463Z,1925
2016-09-14T08:41:52.445Z,1945
2016-09-14T08:42:52.745Z,1980
2016-09-14T08:43:52.416Z,1945
2016-09-14T08:44:53.005Z,1860
2016-09-14T08:45:52.990Z,1835
2016-09-14T08:46:52.371Z,1825
2016-09-14T08:47:52.352Z,1805
2016-09-14T08:48:52.354Z,1800
2016-09-14T08:49:52.620Z,1835
2016-09-14T08:50:52.903Z,1845
2016-09-14T08:51:52.291Z,1795
2016-09-14T08:52:52.568Z,1800
2016-09-14T08:53:52.267Z,1805
2016-09-14T08:54:52.546Z,1785
2016-09-14T08:55:52.838Z,1810
2016-09-14T08:56:52.518Z,1765
2016-09-14T08:57:52.805Z,1765
2016-09-14T08:58:52.489Z,1800
2016-09-14T08:59:52.777Z,1790
2016-09-14T09:00:52.758Z,1770
2016-09-14T09:01:52.739Z,1815
2016-09-14T09:02:52.738Z,1870
2016-09-14T09:03:52.100Z,1860
2016-09-14T09:04:52.700Z,1855
2016-09-14T09:05:52.379Z,1945
2016-09-14T09:06:52.674Z,2015
2016-09-14T09:07:51.743Z,2000
2016-09-14T09:08:52.329Z,1945
2016-09-14T09:09:52.014Z,1980
2016-09-14T09:10:52.299Z,2005
2016-09-14T09:11:51.989Z,2000
2016-09-14T09:12:52.572Z,2020
2016-09-14T09:13:51.957Z,2040
2016-09-14T09:14:52.551Z,2015
2016-09-14T09:15:52.528Z,2005
2016-09-14T09:16:52.207Z,2030
2016-09-14T09:17:51.898Z,1985
2016-09-14T09:18:51.573Z,1970
2016-09-14T09:19:51.862Z,1980
2016-09-14T09:20:52.149Z,1955
2016-09-14T09:21:52.138Z,1995
2016-09-14T09:22:52.431Z,2045
2016-09-14T09:23:51.808Z,2000
2016-09-14T09:24:52.388Z,1975
2016-09-14T09:25:52.077Z,1925
2016-09-14T09:26:52.059Z,1980
2016-09-14T09:27:52.051Z,2015
2016-09-14T09:28:51.731Z,2030
2016-09-14T09:29:51.715Z,1970
2016-09-14T09:30:52.312Z,1905
2016-09-14T09:31:51.997Z,1955
2016-09-14T09:32:51.370Z,1935
2016-09-14T09:33:52.268Z,1940
2016-09-14T09:34:51.949Z,2015
2016-09-14T09:35:51.931Z,2025
2016-09-14T09:36:51.313Z,2040
2016-09-14T09:37:51.601Z,1980
2016-09-14T09:38:51.280Z,1995
2016-09-14T09:39:51.889Z,2065
2016-09-14T09:40:51.857Z,2035
2016-09-14T09:41:52.145Z,2080
2016-09-14T09:42:51.832Z,2065
2016-09-14T09:43:52.116Z,1805
2016-09-14T09:44:52.098Z,1310
2016-09-14T09:45:51.189Z,1155
2016-09-14T09:46:52.073Z,1150
2016-09-14T09:47:51.761Z,1150
2016-09-14T09:48:51.744Z,1165
2016-09-14T09:49:51.745Z,1185
2016-09-14T09:50:51.711Z,1165
2016-09-14T09:51:52.007Z,1175
2016-09-14T09:52:51.687Z,1195
2016-09-14T09:53:51.974Z,1165
2016-09-14T09:54:51.358Z,1155
2016-09-14T09:55:51.645Z,1140
2016-09-14T09:56:51.639Z,1120
2016-09-14T09:57:51.946Z,1125
2016-09-14T09:58:51.908Z,1115
2016-09-14T09:59:51.597Z,1085
2016-09-14T10:00:51.275Z,1065
2016-09-14T10:01:51.264Z,1055
2016-09-14T10:02:51.254Z,1065
2016-09-14T10:03:51.839Z,1065
2016-09-14T10:04:51.818Z,1070
2016-09-14T10:05:51.526Z,1070
2016-09-14T10:06:51.799Z,1075
2016-09-14T10:07:51.484Z,1070
2016-09-14T10:08:51.469Z,1250
2016-09-14T10:09:51.453Z,1915
2016-09-14T10:10:50.532Z,2225
2016-09-14T10:11:51.130Z,2245
2016-09-14T10:12:50.812Z,2300
2016-09-14T10:13:51.700Z,2200
2016-09-14T10:14:51.696Z,2110
2016-09-14T10:15:51.062Z,2290
2016-09-14T10:16:51.359Z,2260
2016-09-14T10:17:51.068Z,2265
2016-09-14T10:18:51.031Z,2310
2016-09-14T10:19:51.310Z,2350
2016-09-14T10:20:51.299Z,2395
2016-09-14T10:21:50.983Z,2380
2016-09-14T10:22:51.280Z,2450
2016-09-14T10:23:50.959Z,2480
2016-09-14T10:24:50.938Z,2380
2016-09-14T10:25:51.534Z,2370
2016-09-14T10:26:51.217Z,2405
2016-09-14T10:27:51.198Z,2420
2016-09-14T10:28:50.880Z,2440
2016-09-14T10:29:50.877Z,2425
2016-09-14T10:30:51.460Z,2385
2016-09-14T10:31:51.456Z,2390
2016-09-14T10:32:51.129Z,2405
2016-09-14T10:33:51.118Z,2445
2016-09-14T10:34:51.101Z,2385
2016-09-14T10:35:51.085Z,2365
2016-09-14T10:36:50.470Z,2390
2016-09-14T10:37:51.060Z,2425
2016-09-14T10:38:51.050Z,2355
2016-09-14T10:39:51.034Z,2405
2016-09-14T10:40:51.014Z,2375
2016-09-14T10:41:50.998Z,2395
2016-09-14T10:42:50.692Z,2385
2016-09-14T10:43:50.665Z,2350
2016-09-14T10:44:50.957Z,2240
2016-09-14T10:45:50.938Z,1645
2016-09-14T10:46:50.649Z,1015
2016-09-14T10:47:50.310Z,950
2016-09-14T10:48:50.906Z,905
2016-09-14T10:49:50.580Z,790
2016-09-14T10:50:50.868Z,750
2016-09-14T10:51:51.148Z,780
2016-09-14T10:52:51.131Z,825
2016-09-14T10:53:51.113Z,815
2016-09-14T10:54:50.801Z,770
2016-09-14T10:55:51.081Z,715
2016-09-14T10:56:50.762Z,705
2016-09-14T10:57:51.052Z,710
2016-09-14T10:58:50.730Z,720
2016-09-14T10:59:50.720Z,820
2016-09-14T11:00:50.695Z,985
2016-09-14T11:01:51.003Z,980
2016-09-14T11:02:50.979Z,945
2016-09-14T11:03:50.960Z,1665
2016-09-14T11:04:50.329Z,2155
2016-09-14T11:05:50.914Z,2185
2016-09-14T11:06:50.603Z,2160
2016-09-14T11:07:50.887Z,1985
2016-09-14T11:08:50.879Z,1935
2016-09-14T11:09:50.547Z,2140
2016-09-14T11:10:50.832Z,2100
2016-09-14T11:11:50.506Z,2085
2016-09-14T11:12:50.194Z,1765
2016-09-14T11:13:50.494Z,830
2016-09-14T11:14:50.153Z,540
2016-09-14T11:15:50.744Z,515
2016-09-14T11:16:50.424Z,500
2016-09-14T11:17:50.099Z,490
2016-09-14T11:18:50.086Z,485
2016-09-14T11:19:50.370Z,475
2016-09-14T11:20:50.353Z,460
2016-09-14T11:21:50.624Z,440
2016-09-14T11:22:50.311Z,425
2016-09-14T11:23:50.292Z,425
2016-09-14T11:24:50.574Z,450
2016-09-14T11:25:50.559Z,855
2016-09-14T11:26:49.930Z,1260
2016-09-14T11:27:50.512Z,545
2016-09-14T11:28:50.498Z,365
2016-09-14T11:29:50.176Z,365
2016-09-14T11:30:49.556Z,360
2016-09-14T11:31:50.439Z,350
2016-09-14T11:32:50.110Z,345
2016-09-14T11:33:50.098Z,340
2016-09-14T11:34:50.389Z,335
2016-09-14T11:35:50.356Z,330
2016-09-14T11:36:50.033Z,315
2016-09-14T11:37:50.018Z,305
2016-09-14T11:38:49.386Z,295
2016-09-14T11:39:49.981Z,285
2016-09-14T11:40:49.947Z,275
2016-09-14T11:41:49.942Z,265
2016-09-14T11:42:49.907Z,260
2016-09-14T11:43:50.192Z,260
2016-09-14T11:44:49.859Z,255
2016-09-14T11:45:49.538Z,255
2016-09-14T11:46:50.122Z,250
2016-09-14T11:47:49.499Z,250
2016-09-14T11:48:50.083Z,245
2016-09-14T11:49:50.070Z,245
2016-09-14T11:50:49.734Z,245
2016-09-14T11:51:50.012Z,240
2016-09-14T11:52:49.986Z,240
2016-09-14T11:53:49.662Z,240
2016-09-14T11:54:49.336Z,240
2016-09-14T11:55:49.911Z,235
2016-09-14T11:56:49.905Z,235
2016-09-14T11:57:49.871Z,240
2016-09-14T11:58:49.251Z,230
2016-09-14T11:59:49.836Z,230
2016-09-14T12:00:49.503Z,230
2016-09-14T12:01:49.779Z,230
2016-09-14T12:02:49.764Z,225
2016-09-14T12:03:49.734Z,225
2016-09-14T12:04:49.714Z,225
2016-09-14T12:05:49.387Z,220
2016-09-14T12:06:49.665Z,220
2016-09-14T12:07:49.340Z,220
2016-09-14T12:08:49.315Z,220
2016-09-14T12:09:49.589Z,215
2016-09-14T12:10:49.575Z,215
2016-09-14T12:11:48.942Z,215
2016-09-14T12:12:49.216Z,215
2016-09-14T12:13:48.895Z,215
2016-09-14T12:14:49.476Z,215
2016-09-14T12:15:49.461Z,210
2016-09-14T12:16:49.124Z,210
2016-09-14T12:17:49.103Z,210
2016-09-14T12:18:49.076Z,210
2016-09-14T12:19:49.368Z,210
2016-09-14T12:20:49.037Z,210
2016-09-14T12:21:48.697Z,210
2016-09-14T12:22:48.977Z,210
2016-09-14T12:23:49.259Z,210
2016-09-14T12:24:48.630Z,210
2016-09-14T12:25:49.209Z,205
2016-09-14T12:26:48.881Z,205
2016-09-14T12:27:48.866Z,205
2016-09-14T12:28:49.141Z,205
2016-09-14T12:29:48.504Z,205
2016-09-14T12:30:48.483Z,200
2016-09-14T12:31:48.753Z,200
2016-09-14T12:32:48.736Z,200
2016-09-14T12:33:48.706Z,200
2016-09-14T12:34:48.385Z,200
2016-09-14T12:35:48.965Z,195
2016-09-14T12:36:48.337Z,195
2016-09-14T12:37:48.912Z,195
2016-09-14T12:38:48.892Z,195
2016-09-14T12:39:48.564Z,195
2016-09-14T12:40:49.039Z,195
2016-09-14T12:41:48.527Z,190
2016-09-14T12:42:48.496Z,190
2016-09-14T12:43:48.764Z,190
2016-09-14T12:44:48.136Z,190
2016-09-14T12:45:47.804Z,190
2016-09-14T12:46:48.091Z,190
2016-09-14T12:47:48.056Z,190
2016-09-14T12:48:48.036Z,190
2016-09-14T12:49:48.314Z,190
2016-09-14T12:50:48.591Z,190
2016-09-14T12:51:48.566Z,185
2016-09-14T12:52:47.945Z,185
2016-09-14T12:53:48.224Z,185
2016-09-14T12:54:48.186Z,185
2016-09-14T12:55:47.865Z,185
2016-09-14T12:56:48.133Z,185
2016-09-14T12:57:47.807Z,185
2016-09-14T12:58:48.391Z,185
2016-09-14T12:59:48.365Z,185
2016-09-14T13:00:48.032Z,185
2016-09-14T13:01:47.705Z,185
2016-09-14T13:02:47.994Z,185
2016-09-14T13:03:47.951Z,180
2016-09-14T13:04:47.635Z,180
2016-09-14T13:05:47.602Z,180
2016-09-14T13:06:48.191Z,180
2016-09-14T13:07:48.162Z,180
2016-09-14T13:08:47.836Z,180
2016-09-14T13:09:47.812Z,180
2016-09-14T13:10:47.771Z,175
2016-09-14T13:11:48.071Z,175
2016-09-14T13:12:48.028Z,175
2016-09-14T13:13:47.104Z,175
2016-09-14T13:14:47.991Z,175
2016-09-14T13:15:47.958Z,175
2016-09-14T13:16:47.932Z,175
2016-09-14T13:17:47.297Z,170
2016-09-14T13:18:47.597Z,170
2016-09-14T13:19:47.558Z,170
2016-09-14T13:20:47.527Z,170
2016-09-14T13:21:47.803Z,170
2016-09-14T13:22:47.474Z,170
2016-09-14T13:23:47.150Z,165
2016-09-14T13:24:47.117Z,165
2016-09-14T13:25:47.708Z,165
2016-09-14T13:26:47.362Z,170
2016-09-14T13:27:47.357Z,165
2016-09-14T13:28:47.019Z,165
2016-09-14T13:29:47.294Z,165
2016-09-14T13:30:47.265Z,165
2016-09-14T13:31:47.237Z,165
2016-09-14T13:32:46.616Z,165
2016-09-14T13:33:47.497Z,160
2016-09-14T13:34:47.470Z,160
2016-09-14T13:35:47.438Z,160
2016-09-14T13:36:47.417Z,160
2016-09-14T13:37:46.784Z,160
2016-09-14T13:38:46.772Z,160
2016-09-14T13:39:46.747Z,160
2016-09-14T13:40:47.017Z,160
2016-09-14T13:41:47.292Z,155
2016-09-14T13:42:47.253Z,155
2016-09-14T13:43:46.329Z,155
2016-09-14T13:44:46.603Z,155
2016-09-14T13:45:46.581Z,155
2016-09-14T13:46:47.155Z,155
2016-09-14T13:47:46.848Z,150
2016-09-14T13:48:46.799Z,150
2016-09-14T13:49:46.779Z,150
2016-09-14T13:50:47.054Z,150
2016-09-14T13:51:46.424Z,150
2016-09-14T13:52:47.008Z,150
2016-09-14T13:53:46.985Z,150
2016-09-14T13:54:46.649Z,150
2016-09-14T13:55:46.633Z,150
2016-09-14T13:56:45.991Z,145
2016-09-14T13:57:46.866Z,145
2016-09-14T13:58:46.848Z,145
2016-09-14T13:59:46.207Z,145